createdAt,value
2019-04-22T00:00:00.986Z,16.60
2019-04-22T00:02:40.074Z,16.60
2019-04-22T00:05:14.357Z,16.50
2019-04-22T00:08:03.756Z,16.50
2019-04-22T00:10:39.486Z,16.50
2019-04-22T00:13:26.179Z,16.40
2019-04-22T00:15:32.635Z,16.40
2019-04-22T00:18:17.400Z,16.30
2019-04-22T00:20:43.975Z,16.30
2019-04-22T00:23:16.967Z,16.20
2019-04-22T00:25:50.761Z,16.20
2019-04-22T00:28:19.905Z,16.20
2019-04-22T00:30:47.987Z,16.10
2019-04-22T00:33:24.512Z,16.10
2019-04-22T00:35:51.130Z,16.10
2019-04-22T00:38:38.697Z,16.00
2019-04-22T00:41:04.337Z,16.00
2019-04-22T00:43:32.480Z,16.00
2019-04-22T00:45:56.252Z,16.00
2019-04-22T00:48:57.676Z,15.90
2019-04-22T00:51:10.869Z,15.90
2019-04-22T00:53:35.293Z,15.90
2019-04-22T00:56:11.087Z,15.90
2019-04-22T00:58:48.391Z,15.80
2019-04-22T01:04:00.817Z,15.80
2019-04-22T01:06:23.602Z,15.70
2019-04-22T01:13:55.278Z,15.70
2019-04-22T01:16:28.328Z,15.60
2019-04-22T01:19:00.578Z,15.60
2019-04-22T01:21:36.879Z,15.60
2019-04-22T01:24:02.794Z,15.60
2019-04-22T01:26:29.019Z,15.40
2019-04-22T01:29:00.882Z,15.50
2019-04-22T01:31:25.946Z,15.50
2019-04-22T01:34:10.304Z,15.50
2019-04-22T01:36:51.743Z,15.50
2019-04-22T01:39:23.309Z,15.40
2019-04-22T01:42:03.900Z,15.40
2019-04-22T01:44:33.345Z,15.40
2019-04-22T01:46:58.757Z,15.30
2019-04-22T01:52:05.091Z,15.30
2019-04-22T01:54:43.205Z,15.20
2019-04-22T01:57:04.939Z,15.20
2019-04-22T01:59:35.532Z,15.20
2019-04-22T02:02:16.312Z,15.10
2019-04-22T02:04:48.053Z,15.10
2019-04-22T02:07:16.994Z,15.10
2019-04-22T02:09:49.511Z,15.00
2019-04-22T02:12:19.829Z,15.00
2019-04-22T02:14:52.239Z,15.00
2019-04-22T02:17:26.475Z,15.00
2019-04-22T02:22:42.844Z,14.90
2019-04-22T02:24:58.871Z,14.90
2019-04-22T02:27:35.232Z,14.90
2019-04-22T02:29:57.969Z,14.80
2019-04-22T02:33:01.927Z,14.80
2019-04-22T02:37:54.869Z,14.70
2019-04-22T02:42:48.214Z,14.70
2019-04-22T02:45:23.279Z,14.60
2019-04-22T02:47:42.408Z,14.60
2019-04-22T02:50:19.799Z,14.60
2019-04-22T02:52:43.322Z,14.50
2019-04-22T02:55:41.310Z,14.50
2019-04-22T02:57:47.104Z,14.50
2019-04-22T03:10:37.978Z,14.30
2019-04-22T03:13:00.094Z,14.20
2019-04-22T03:15:32.372Z,14.20
2019-04-22T03:20:42.741Z,14.10
2019-04-22T03:26:00.505Z,14.10
2019-04-22T03:28:18.697Z,14.00
2019-04-22T03:31:06.607Z,14.00
2019-04-22T03:33:43.931Z,14.00
2019-04-22T03:36:25.890Z,13.90
2019-04-22T03:38:29.420Z,13.90
2019-04-22T03:41:03.599Z,13.90
2019-04-22T03:43:35.950Z,13.80
2019-04-22T03:45:46.606Z,13.80
2019-04-22T03:48:26.176Z,13.80
2019-04-22T03:51:08.767Z,13.80
2019-04-22T03:53:33.415Z,13.70
2019-04-22T03:56:32.592Z,13.70
2019-04-22T03:58:45.457Z,13.70
2019-04-22T04:01:21.884Z,13.70
2019-04-22T04:03:40.504Z,13.60
2019-04-22T04:06:06.154Z,13.60
2019-04-22T04:11:18.211Z,13.60
2019-04-22T04:16:19.627Z,13.50
2019-04-22T04:18:56.176Z,13.50
2019-04-22T04:24:23.323Z,13.50
2019-04-22T04:26:38.726Z,13.50
2019-04-22T04:29:17.157Z,13.40
2019-04-22T04:32:31.124Z,13.40
2019-04-22T04:39:00.943Z,13.40
2019-04-22T04:41:43.340Z,13.30
2019-04-22T04:56:40.336Z,13.20
2019-04-22T04:59:30.527Z,13.20
2019-04-22T05:01:49.009Z,13.20
2019-04-22T05:04:26.416Z,13.10
2019-04-22T05:06:52.147Z,13.10
2019-04-22T05:09:22.430Z,13.10
2019-04-22T05:14:19.245Z,13.10
2019-04-22T05:19:20.849Z,13.10
2019-04-22T05:21:56.635Z,13.10
2019-04-22T05:24:38.360Z,13.10
2019-04-22T05:26:58.687Z,13.10
2019-04-22T05:29:26.636Z,13.10
2019-04-22T05:31:56.833Z,13.10
2019-04-22T05:34:40.205Z,13.10
2019-04-22T05:37:01.260Z,13.10
2019-04-22T05:39:28.531Z,13.10
2019-04-22T05:42:03.416Z,13.10
2019-04-22T05:44:39.501Z,13.10
2019-04-22T05:47:04.761Z,13.20
2019-04-22T05:49:47.763Z,13.20
2019-04-22T05:52:11.159Z,13.20
2019-04-22T05:54:43.784Z,13.30
2019-04-22T05:57:14.465Z,13.30
2019-04-22T05:59:50.332Z,13.30
2019-04-22T06:04:54.972Z,13.40
2019-04-22T06:07:13.848Z,13.50
2019-04-22T06:09:49.234Z,13.50
2019-04-22T06:12:17.377Z,13.60
2019-04-22T06:14:53.822Z,13.60
2019-04-22T06:17:32.207Z,13.70
2019-04-22T06:20:04.250Z,13.80
2019-04-22T06:22:44.934Z,13.90
2019-04-22T06:27:38.672Z,14.20
2019-04-22T06:30:09.768Z,14.30
2019-04-22T06:32:53.797Z,14.40
2019-04-22T06:35:22.182Z,14.50
2019-04-22T06:37:55.307Z,14.70
2019-04-22T06:40:24.885Z,14.80
2019-04-22T06:42:52.375Z,14.90
2019-04-22T06:45:18.985Z,15.00
2019-04-22T06:48:00.415Z,15.00
2019-04-22T06:50:28.067Z,15.10
2019-04-22T06:52:55.200Z,15.20
2019-04-22T06:55:29.883Z,15.20
2019-04-22T06:58:01.053Z,15.30
2019-04-22T07:00:32.403Z,15.40
2019-04-22T07:03:25.434Z,15.40
2019-04-22T07:05:37.663Z,15.50
2019-04-22T07:08:27.491Z,15.60
2019-04-22T07:10:43.045Z,15.70
2019-04-22T07:13:10.640Z,15.70
2019-04-22T07:15:55.206Z,15.80
2019-04-22T07:18:20.935Z,15.90
2019-04-22T07:23:21.540Z,16.30
2019-04-22T07:25:45.187Z,16.50
2019-04-22T07:28:20.474Z,16.60
2019-04-22T07:33:48.532Z,16.80
2019-04-22T07:36:47.154Z,16.80
2019-04-22T07:38:45.552Z,16.90
2019-04-22T07:41:21.867Z,16.90
2019-04-22T07:44:07.353Z,17.00
2019-04-22T07:46:19.839Z,17.10
2019-04-22T07:51:27.056Z,17.20
2019-04-22T07:53:56.052Z,17.30
2019-04-22T07:56:29.336Z,17.40
2019-04-22T07:59:07.656Z,17.50
2019-04-22T08:01:32.406Z,17.50
2019-04-22T08:06:43.800Z,17.70
2019-04-22T08:09:15.147Z,17.90
2019-04-22T08:11:51.588Z,18.10
2019-04-22T08:14:14.665Z,18.20
2019-04-22T08:19:24.941Z,18.60
2019-04-22T08:21:55.162Z,18.80
2019-04-22T08:24:22.569Z,18.90
2019-04-22T08:26:53.244Z,19.10
2019-04-22T08:32:01.196Z,19.40
2019-04-22T08:34:29.894Z,19.50
2019-04-22T08:39:35.841Z,19.70
2019-04-22T08:42:08.321Z,19.80
2019-04-22T08:45:02.546Z,19.90
2019-04-22T08:47:21.784Z,19.90
2019-04-22T08:49:50.896Z,20.20
2019-04-22T08:52:16.491Z,20.30
2019-04-22T08:54:50.812Z,20.40
2019-04-22T08:57:24.197Z,20.50
2019-04-22T08:59:48.647Z,20.60
2019-04-22T09:02:31.866Z,20.70
2019-04-22T09:04:48.037Z,20.80
2019-04-22T09:07:29.831Z,20.90
2019-04-22T09:09:55.771Z,21.00
2019-04-22T09:12:50.000Z,21.10
2019-04-22T09:14:55.079Z,21.20
2019-04-22T09:17:34.967Z,21.30
2019-04-22T09:20:06.484Z,21.40
2019-04-22T09:22:56.944Z,21.50
2019-04-22T09:25:08.124Z,21.70
2019-04-22T09:27:42.973Z,21.80
2019-04-22T09:30:26.027Z,21.90
2019-04-22T09:33:08.218Z,22.00
2019-04-22T09:35:16.194Z,22.00
2019-04-22T09:38:00.257Z,22.10
2019-04-22T09:40:22.335Z,22.20
2019-04-22T09:45:22.981Z,22.50
2019-04-22T09:48:00.866Z,22.60
2019-04-22T09:50:29.366Z,22.70
2019-04-22T09:53:02.049Z,22.80
2019-04-22T09:55:34.588Z,22.90
2019-04-22T09:58:09.636Z,22.90
2019-04-22T10:00:43.055Z,23.00
2019-04-22T10:03:16.644Z,23.20
2019-04-22T10:05:52.490Z,23.30
2019-04-22T10:08:24.444Z,23.40
2019-04-22T10:10:48.982Z,23.70
2019-04-22T10:13:32.278Z,23.90
2019-04-22T10:15:54.834Z,24.10
2019-04-22T10:18:26.178Z,24.30
2019-04-22T10:20:54.154Z,24.50
2019-04-22T10:23:25.363Z,24.70
2019-04-22T10:25:59.121Z,24.80
2019-04-22T10:28:35.256Z,24.90
2019-04-22T10:31:21.802Z,25.00
2019-04-22T10:33:26.948Z,25.10
2019-04-22T10:35:39.444Z,25.20
2019-04-22T10:38:10.330Z,25.20
2019-04-22T10:40:40.753Z,25.30
2019-04-22T10:43:11.504Z,25.30
2019-04-22T10:45:41.980Z,25.30
2019-04-22T10:48:12.509Z,25.40
2019-04-22T10:50:48.715Z,25.40
2019-04-22T10:53:21.543Z,25.50
2019-04-22T10:55:51.898Z,25.60
2019-04-22T10:58:23.012Z,25.60
2019-04-22T11:00:54.406Z,25.80
2019-04-22T11:03:26.548Z,25.80
2019-04-22T11:05:57.071Z,25.90
2019-04-22T11:08:35.006Z,25.90
2019-04-22T11:11:12.351Z,25.90
2019-04-22T11:13:29.646Z,25.90
2019-04-22T11:16:00.572Z,25.80
2019-04-22T11:18:31.659Z,25.80
2019-04-22T11:21:01.951Z,25.80
2019-04-22T11:23:32.406Z,25.80
2019-04-22T11:26:03.790Z,25.80
2019-04-22T11:28:33.911Z,25.80
2019-04-22T11:31:03.990Z,25.80
2019-04-22T11:33:34.523Z,25.80
2019-04-22T11:36:05.963Z,25.90
2019-04-22T11:38:37.744Z,25.90
2019-04-22T11:41:09.140Z,26.00
2019-04-22T11:43:39.139Z,26.10
2019-04-22T11:46:09.423Z,26.20
2019-04-22T11:48:42.221Z,26.20
2019-04-22T11:51:13.831Z,26.30
2019-04-22T11:53:45.086Z,26.40
2019-04-22T11:56:14.785Z,26.60
2019-04-22T11:58:44.575Z,26.70
2019-04-22T12:01:15.049Z,26.70
2019-04-22T12:03:46.287Z,26.80
2019-04-22T12:06:17.797Z,26.90
2019-04-22T12:08:48.001Z,27.00
2019-04-22T12:11:18.651Z,27.00
2019-04-22T12:13:48.509Z,27.10
2019-04-22T12:16:19.468Z,27.10
2019-04-22T12:18:49.364Z,27.30
2019-04-22T12:21:19.515Z,27.40
2019-04-22T12:23:50.814Z,27.60
2019-04-22T12:26:24.637Z,27.70
2019-04-22T12:28:55.082Z,27.80
2019-04-22T12:31:25.199Z,28.00
2019-04-22T12:33:55.145Z,28.20
2019-04-22T12:36:26.872Z,28.30
2019-04-22T12:38:57.811Z,28.50
2019-04-22T12:41:31.199Z,28.70
2019-04-22T12:44:03.298Z,28.80
2019-04-22T12:46:36.510Z,29.00
2019-04-22T12:49:08.009Z,29.10
2019-04-22T12:51:40.975Z,29.20
2019-04-22T12:54:11.049Z,29.20
2019-04-22T12:56:41.930Z,29.20
2019-04-22T12:59:11.855Z,29.10
2019-04-22T13:01:44.767Z,29.00
2019-04-22T13:04:21.240Z,29.00
2019-04-22T13:06:53.441Z,29.00
2019-04-22T13:09:23.315Z,29.00
2019-04-22T13:11:53.068Z,28.90
2019-04-22T13:14:23.183Z,28.90
2019-04-22T13:16:53.609Z,28.90
2019-04-22T13:19:32.063Z,28.80
2019-04-22T13:22:02.923Z,28.80
2019-04-22T13:24:34.148Z,28.80
2019-04-22T13:27:04.057Z,28.90
2019-04-22T13:29:37.224Z,29.00
2019-04-22T13:32:08.824Z,29.10
2019-04-22T13:34:49.434Z,29.20
2019-04-22T13:37:14.823Z,29.50
2019-04-22T13:39:45.338Z,29.70
2019-04-22T13:42:19.364Z,30.00
2019-04-22T13:44:46.509Z,30.10
2019-04-22T13:47:34.973Z,30.30
2019-04-22T13:50:25.968Z,30.40
2019-04-22T13:52:53.593Z,30.50
2019-04-22T13:55:40.838Z,30.50
2019-04-22T13:57:47.456Z,30.60
2019-04-22T14:00:09.541Z,30.70
2019-04-22T14:02:40.353Z,30.80
2019-04-22T14:05:11.059Z,30.90
2019-04-22T14:07:43.092Z,30.90
2019-04-22T14:10:18.557Z,31.10
2019-04-22T14:12:48.770Z,31.30
2019-04-22T14:15:22.386Z,31.50
2019-04-22T14:17:52.793Z,31.80
2019-04-22T14:20:25.657Z,32.50
2019-04-22T14:22:56.730Z,33.20
2019-04-22T14:25:26.558Z,34.00
2019-04-22T14:28:01.826Z,34.40
2019-04-22T14:30:28.650Z,34.70
2019-04-22T14:33:00.048Z,35.30
2019-04-22T14:35:31.266Z,36.50
2019-04-22T14:38:01.477Z,37.80
2019-04-22T14:40:36.147Z,39.00
2019-04-22T14:43:31.672Z,40.00
2019-04-22T14:46:17.880Z,40.80
2019-04-22T14:48:45.020Z,41.30
2019-04-22T14:51:00.864Z,42.00
2019-04-22T14:53:35.552Z,42.90
2019-04-22T14:55:50.506Z,43.50
2019-04-22T14:58:20.351Z,44.20
2019-04-22T15:00:51.912Z,44.80
2019-04-22T15:03:23.838Z,45.30
2019-04-22T15:05:54.509Z,45.80
2019-04-22T15:08:24.827Z,46.10
2019-04-22T15:11:00.512Z,46.30
2019-04-22T15:13:31.597Z,46.00
2019-04-22T15:16:03.355Z,45.90
2019-04-22T15:18:51.771Z,45.90
2019-04-22T15:21:27.022Z,45.90
2019-04-22T15:24:00.507Z,46.20
2019-04-22T15:26:30.759Z,46.20
2019-04-22T15:29:00.495Z,46.30
2019-04-22T15:31:31.527Z,46.40
2019-04-22T15:34:02.624Z,46.20
2019-04-22T15:36:33.945Z,45.50
2019-04-22T15:39:07.316Z,44.30
2019-04-22T15:41:36.932Z,43.90
2019-04-22T15:44:07.974Z,43.60
2019-04-22T15:46:39.027Z,43.00
2019-04-22T15:49:09.913Z,42.50
2019-04-22T15:51:40.861Z,42.10
2019-04-22T15:54:11.821Z,41.50
2019-04-22T15:56:41.650Z,40.70
2019-04-22T15:59:31.165Z,39.90
2019-04-22T16:01:43.360Z,39.50
2019-04-22T16:04:16.954Z,39.10
2019-04-22T16:06:47.254Z,39.20
2019-04-22T16:09:17.381Z,39.00
2019-04-22T16:11:47.733Z,38.60
2019-04-22T16:14:23.979Z,38.00
2019-04-22T16:16:50.378Z,37.40
2019-04-22T16:19:23.262Z,36.80
2019-04-22T16:21:59.309Z,36.20
2019-04-22T16:24:27.735Z,35.70
2019-04-22T16:27:00.424Z,35.20
2019-04-22T16:29:31.560Z,34.90
2019-04-22T16:32:01.518Z,34.70
2019-04-22T16:34:31.313Z,34.60
2019-04-22T16:37:01.228Z,34.50
2019-04-22T16:39:31.188Z,34.10
2019-04-22T16:42:02.495Z,33.70
2019-04-22T16:44:34.526Z,33.30
2019-04-22T16:47:08.020Z,33.00
2019-04-22T16:49:39.263Z,32.70
2019-04-22T16:52:10.081Z,32.50
2019-04-22T16:54:42.093Z,32.40
2019-04-22T16:57:12.561Z,32.50
2019-04-22T16:59:42.799Z,32.90
2019-04-22T17:02:28.535Z,33.10
2019-04-22T17:05:07.384Z,32.90
2019-04-22T17:07:40.230Z,32.70
2019-04-22T17:10:11.037Z,32.40
2019-04-22T17:12:50.791Z,32.10
2019-04-22T17:15:16.033Z,31.80
2019-04-22T17:17:47.383Z,31.50
2019-04-22T17:20:17.591Z,31.30
2019-04-22T17:22:47.542Z,31.00
2019-04-22T17:25:18.296Z,30.80
2019-04-22T17:27:49.761Z,30.60
2019-04-22T17:30:24.355Z,30.30
2019-04-22T17:32:54.821Z,30.10
2019-04-22T17:35:26.136Z,29.80
2019-04-22T17:38:08.765Z,29.60
2019-04-22T17:40:44.963Z,29.40
2019-04-22T17:43:29.833Z,29.20
2019-04-22T17:46:07.221Z,29.00
2019-04-22T17:48:48.894Z,28.80
2019-04-22T17:51:29.817Z,28.50
2019-04-22T17:53:55.025Z,28.30
2019-04-22T17:56:27.827Z,28.10
2019-04-22T17:58:57.398Z,27.90
2019-04-22T18:01:30.977Z,27.70
2019-04-22T18:03:48.559Z,27.50
2019-04-22T18:06:42.889Z,27.30
2019-04-22T18:09:01.499Z,27.10
2019-04-22T18:11:39.911Z,26.90
2019-04-22T18:14:25.942Z,26.80
2019-04-22T18:16:37.179Z,26.60
2019-04-22T18:19:10.013Z,26.40
2019-04-22T18:21:38.008Z,26.30
2019-04-22T18:24:04.657Z,26.20
2019-04-22T18:26:47.885Z,26.00
2019-04-22T18:29:17.728Z,25.90
2019-04-22T18:31:40.889Z,25.80
2019-04-22T18:34:10.253Z,25.70
2019-04-22T18:36:47.817Z,25.50
2019-04-22T18:39:28.595Z,25.40
2019-04-22T18:41:51.951Z,25.30
2019-04-22T18:44:27.147Z,25.20
2019-04-22T18:46:56.763Z,25.10
2019-04-22T18:49:36.044Z,25.00
2019-04-22T18:52:04.523Z,24.90
2019-04-22T18:54:43.893Z,24.80
2019-04-22T18:57:09.835Z,24.70
2019-04-22T18:59:28.825Z,24.60
2019-04-22T19:02:01.442Z,24.50
2019-04-22T19:04:39.702Z,24.50
2019-04-22T19:07:28.735Z,24.40
2019-04-22T19:09:58.244Z,24.30
2019-04-22T19:12:28.935Z,24.20
2019-04-22T19:14:58.931Z,24.10
2019-04-22T19:17:32.819Z,24.10
2019-04-22T19:20:02.980Z,24.00
2019-04-22T19:22:36.570Z,23.90
2019-04-22T19:24:54.997Z,23.90
2019-04-22T19:27:31.268Z,23.80
2019-04-22T19:30:14.256Z,23.70
2019-04-22T19:32:38.410Z,23.70
2019-04-22T19:35:04.990Z,23.60
2019-04-22T19:37:39.866Z,23.50
2019-04-22T19:40:15.075Z,23.50
2019-04-22T19:42:53.485Z,23.40
2019-04-22T19:45:17.599Z,23.30
2019-04-22T19:48:01.838Z,23.20
2019-04-22T19:50:27.356Z,23.20
2019-04-22T19:53:02.007Z,23.00
2019-04-22T19:55:32.570Z,23.00
2019-04-22T19:58:05.514Z,22.90
2019-04-22T20:00:36.193Z,22.80
2019-04-22T20:03:21.791Z,22.80
2019-04-22T20:05:47.903Z,22.70
2019-04-22T20:08:19.894Z,22.60
2019-04-22T20:10:52.628Z,22.60
2019-04-22T20:13:31.077Z,22.60
2019-04-22T20:15:49.070Z,22.50
2019-04-22T20:18:37.272Z,22.50
2019-04-22T20:20:58.596Z,22.50
2019-04-22T20:23:22.898Z,22.40
2019-04-22T20:25:51.149Z,22.40
2019-04-22T20:28:32.229Z,22.40
2019-04-22T20:31:02.684Z,22.40
2019-04-22T20:33:36.849Z,22.30
2019-04-22T20:36:25.287Z,22.30
2019-04-22T20:38:38.547Z,22.30
2019-04-22T20:41:05.642Z,22.20
2019-04-22T20:43:48.981Z,22.20
2019-04-22T20:46:15.206Z,22.20
2019-04-22T20:48:48.372Z,22.20
2019-04-22T20:51:14.036Z,22.20
2019-04-22T20:53:49.175Z,22.10
2019-04-22T20:56:14.798Z,22.10
2019-04-22T20:58:51.828Z,22.00
2019-04-22T21:01:21.056Z,22.00
2019-04-22T21:03:41.925Z,22.00
2019-04-22T21:06:23.145Z,21.90
2019-04-22T21:09:01.146Z,21.90
2019-04-22T21:11:30.014Z,21.90
2019-04-22T21:14:01.317Z,21.80
2019-04-22T21:16:34.255Z,21.80
2019-04-22T21:18:59.015Z,21.80
2019-04-22T21:21:37.999Z,21.70
2019-04-22T21:24:25.072Z,21.70
2019-04-22T21:26:57.081Z,21.70
2019-04-22T21:29:29.503Z,21.70
2019-04-22T21:32:01.569Z,21.60
2019-04-22T21:34:40.783Z,21.60
2019-04-22T21:37:12.211Z,21.60
2019-04-22T21:39:33.405Z,21.50
2019-04-22T21:42:08.572Z,21.50
2019-04-22T21:44:41.078Z,21.50
2019-04-22T21:47:14.503Z,21.40
2019-04-22T21:49:40.493Z,21.40
2019-04-22T21:52:17.690Z,21.40
2019-04-22T21:54:57.397Z,21.40
2019-04-22T21:57:24.127Z,21.30
2019-04-22T21:59:53.296Z,21.30
2019-04-22T22:02:27.835Z,21.20
2019-04-22T22:04:58.957Z,21.20
2019-04-22T22:07:17.544Z,21.20
2019-04-22T22:10:05.826Z,21.10
2019-04-22T22:12:37.827Z,21.10
2019-04-22T22:15:06.897Z,21.00
2019-04-22T22:17:35.460Z,21.00
2019-04-22T22:20:05.877Z,20.90
2019-04-22T22:23:00.004Z,20.90
2019-04-22T22:25:17.816Z,20.80
2019-04-22T22:27:40.915Z,20.80
2019-04-22T22:30:38.820Z,20.70
2019-04-22T22:32:47.488Z,20.60
2019-04-22T22:35:20.641Z,20.60
2019-04-22T22:37:51.269Z,20.50
2019-04-22T22:40:09.223Z,20.40
2019-04-22T22:42:38.647Z,20.40
2019-04-22T22:45:18.203Z,20.30
2019-04-22T22:48:05.716Z,20.20
2019-04-22T22:50:30.285Z,20.20
2019-04-22T22:55:33.231Z,20.10
2019-04-22T22:58:13.151Z,20.00
2019-04-22T23:00:35.330Z,20.00
2019-04-22T23:05:44.948Z,19.80
2019-04-22T23:08:22.834Z,19.80
2019-04-22T23:10:57.363Z,19.70
2019-04-22T23:13:21.798Z,19.70
2019-04-22T23:15:48.456Z,19.60
2019-04-22T23:18:01.866Z,19.60
2019-04-22T23:20:37.578Z,19.50
2019-04-22T23:23:21.868Z,19.50
2019-04-22T23:26:03.872Z,19.50
2019-04-22T23:28:34.921Z,19.40
2019-04-22T23:31:09.460Z,19.40
2019-04-22T23:33:49.459Z,19.40
2019-04-22T23:36:15.031Z,19.30
2019-04-22T23:38:59.220Z,19.30
2019-04-22T23:41:47.137Z,19.30
2019-04-22T23:44:13.862Z,19.30
2019-04-22T23:46:47.982Z,19.30
2019-04-22T23:49:18.005Z,19.20
2019-04-22T23:52:00.996Z,19.20
2019-04-22T23:54:35.777Z,19.30
2019-04-22T23:56:57.002Z,19.20
